Time;durP1;ratioP1;P1;durP2;ratioP2;P2;SDS_P1;SDS_P2;PMS_P1;PMS_P2;Temp;Humidity;BMP_temperature;BMP_pressure;BME280_temperature;BME280_humidity;BME280_pressure;Samples;Min_cycle;Max_cycle;Signal;HPM_P1;HPM_P2
2022/04/17 00:01:56;;;;;;;21.83;19.87;;;6.40;99.90;;;;;;5058370;28;20446;-70
2022/04/17 00:04:45;;;;;;;19.30;17.50;;;6.40;99.90;;;;;;5057183;28;20474;-70
2022/04/17 00:07:34;;;;;;;20.83;18.60;;;6.40;99.90;;;;;;5054996;28;20454;-70
2022/04/17 00:10:22;;;;;;;18.70;17.10;;;6.40;99.90;;;;;;5057088;28;20517;-69
2022/04/17 00:13:11;;;;;;;19.43;17.57;;;6.30;99.90;;;;;;5056222;28;20476;-69
2022/04/17 00:16:00;;;;;;;19.40;17.50;;;6.30;99.90;;;;;;5056831;28;20493;-70
2022/04/17 00:18:48;;;;;;;19.27;17.40;;;6.30;99.90;;;;;;5055503;28;20465;-70
2022/04/17 00:21:36;;;;;;;18.20;16.40;;;6.30;99.90;;;;;;5058633;28;20450;-70
2022/04/17 00:24:26;;;;;;;18.63;16.87;;;6.30;99.90;;;;;;5055958;28;20568;-70
2022/04/17 00:27:15;;;;;;;18.40;16.70;;;6.20;99.90;;;;;;5053549;28;20548;-69
2022/04/17 00:30:03;;;;;;;19.20;17.43;;;6.20;99.90;;;;;;5056886;28;20470;-69
2022/04/17 00:32:53;;;;;;;19.10;17.27;;;6.20;99.90;;;;;;5055892;28;20501;-70
2022/04/17 00:35:43;;;;;;;18.23;16.43;;;6.20;99.90;;;;;;5055034;28;20548;-70
2022/04/17 00:38:31;;;;;;;19.10;17.30;;;6.20;99.90;;;;;;5055676;28;20620;-70
2022/04/17 00:41:20;;;;;;;20.83;18.87;;;6.10;99.90;;;;;;5057061;28;20583;-70
2022/04/17 00:44:11;;;;;;;20.73;18.77;;;6.10;99.90;;;;;;5053625;28;21128;-69
2022/04/17 00:46:59;;;;;;;20.30;18.40;;;6.10;99.90;;;;;;5056068;28;20977;-70
2022/04/17 00:49:49;;;;;;;20.10;18.20;;;6.10;99.90;;;;;;5056233;28;20477;-70
2022/04/17 00:52:38;;;;;;;20.23;18.27;;;6.00;99.90;;;;;;5038854;28;20538;-70
2022/04/17 00:55:27;;;;;;;20.60;18.70;;;6.00;99.90;;;;;;5055303;28;20474;-69
2022/04/17 00:58:15;;;;;;;20.87;18.87;;;6.00;99.90;;;;;;5054740;28;20562;-70
2022/04/17 01:01:06;;;;;;;24.77;22.27;;;5.90;99.90;;;;;;5055364;28;20479;-70
2022/04/17 01:03:55;;;;;;;25.00;22.30;;;5.90;99.90;;;;;;5055622;28;21206;-70
2022/04/17 01:06:44;;;;;;;28.60;23.37;;;5.80;99.90;;;;;;5055528;28;20483;-70
2022/04/17 01:09:33;;;;;;;52.73;32.40;;;5.70;99.90;;;;;;5053846;28;20627;-70
2022/04/17 01:12:21;;;;;;;43.53;30.37;;;5.60;99.90;;;;;;5056213;28;20538;-70
2022/04/17 01:15:11;;;;;;;54.43;33.80;;;5.40;99.90;;;;;;5056105;28;20455;-70
2022/04/17 01:18:00;;;;;;;58.67;35.33;;;5.40;99.90;;;;;;5053611;28;20962;-70
2022/04/17 01:20:48;;;;;;;59.17;36.27;;;5.30;99.90;;;;;;5055610;28;20442;-70
2022/04/17 01:26:58;;;;;;;42.53;27.13;;;5.20;99.90;;;;;;5055086;28;20593;-70
2022/04/17 01:29:47;;;;;;;25.60;20.90;;;5.20;99.90;;;;;;5055579;28;20465;-70
2022/04/17 01:32:35;;;;;;;23.80;21.30;;;5.20;99.90;;;;;;5054613;28;20658;-70
2022/04/17 01:35:24;;;;;;;24.87;20.57;;;5.30;99.90;;;;;;5056677;28;20528;-69
2022/04/17 01:38:12;;;;;;;22.80;20.50;;;5.30;99.90;;;;;;5056295;28;20563;-70
2022/04/17 01:41:01;;;;;;;23.40;21.07;;;5.40;99.90;;;;;;5055938;28;20527;-69
2022/04/17 01:43:49;;;;;;;22.67;20.47;;;5.40;99.90;;;;;;5052567;28;20605;-70
2022/04/17 01:46:37;;;;;;;25.43;23.03;;;5.40;99.90;;;;;;5056577;28;20580;-70
2022/04/17 01:49:25;;;;;;;25.57;23.03;;;5.40;99.90;;;;;;5055284;28;20575;-70
2022/04/17 01:52:14;;;;;;;25.57;22.97;;;5.40;99.90;;;;;;5053616;28;20454;-70
2022/04/17 01:55:02;;;;;;;24.50;22.10;;;5.40;99.90;;;;;;5054938;28;20466;-70
2022/04/17 01:57:51;;;;;;;26.23;23.57;;;5.40;99.90;;;;;;5055675;28;21480;-70
2022/04/17 02:00:39;;;;;;;25.57;23.07;;;5.50;99.90;;;;;;5057029;28;20544;-70
2022/04/17 02:03:27;;;;;;;26.50;23.90;;;5.50;99.90;;;;;;5055490;28;20568;-70
2022/04/17 02:06:15;;;;;;;25.70;23.10;;;5.50;99.90;;;;;;5059109;28;20541;-69
2022/04/17 02:09:04;;;;;;;26.33;23.60;;;5.50;99.90;;;;;;5059859;28;20463;-69
2022/04/17 02:11:53;;;;;;;25.80;23.20;;;5.50;99.90;;;;;;5060153;28;20664;-70
2022/04/17 02:14:42;;;;;;;28.63;25.33;;;5.40;99.90;;;;;;5060497;28;20858;-70
2022/04/17 02:17:32;;;;;;;26.37;23.63;;;5.50;99.90;;;;;;5061277;28;20617;-70
2022/04/17 02:20:20;;;;;;;27.33;24.77;;;5.40;99.90;;;;;;5057973;28;20529;-70
2022/04/17 02:23:08;;;;;;;26.70;24.10;;;5.40;99.90;;;;;;5059714;28;20525;-70
2022/04/17 02:25:56;;;;;;;28.30;25.20;;;5.40;99.90;;;;;;5060770;28;20897;-70
2022/04/17 02:28:45;;;;;;;28.93;26.33;;;5.40;99.90;;;;;;5059482;28;20490;-70
2022/04/17 02:31:34;;;;;;;28.37;25.57;;;5.30;99.90;;;;;;5060742;28;20504;-70
2022/04/17 02:34:22;;;;;;;29.60;26.70;;;5.30;99.90;;;;;;5059267;28;20606;-71
2022/04/17 02:37:11;;;;;;;29.10;25.93;;;5.30;99.90;;;;;;5059562;28;21048;-71
2022/04/17 02:39:59;;;;;;;28.77;25.87;;;5.20;99.90;;;;;;5060404;28;20517;-71
2022/04/17 02:42:47;;;;;;;30.03;27.00;;;5.20;99.90;;;;;;5058534;28;20532;-71
2022/04/17 02:45:36;;;;;;;30.00;26.70;;;5.20;99.90;;;;;;5057083;28;20539;-71
2022/04/17 02:48:25;;;;;;;29.43;26.43;;;5.10;99.90;;;;;;5058560;28;20473;-71
2022/04/17 02:51:13;;;;;;;29.50;26.63;;;5.10;99.90;;;;;;5059880;28;21049;-70
2022/04/17 02:54:01;;;;;;;30.13;26.80;;;5.10;99.90;;;;;;5056935;28;20494;-71
2022/04/17 02:56:49;;;;;;;30.80;27.77;;;5.10;99.90;;;;;;5058066;28;20449;-71
2022/04/17 02:59:37;;;;;;;31.30;28.10;;;5.10;99.90;;;;;;5060042;28;20466;-71
2022/04/17 03:05:37;;;;;;;32.17;28.73;;;5.00;99.90;;;;;;5058875;28;20503;-71
2022/04/17 03:08:26;;;;;;;31.03;27.93;;;5.00;99.90;;;;;;5059358;28;20512;-71
2022/04/17 03:11:14;;;;;;;30.07;27.20;;;5.00;99.90;;;;;;5058533;28;20538;-70
2022/04/17 03:14:02;;;;;;;31.57;28.17;;;5.00;99.90;;;;;;5054458;28;20552;-70
2022/04/17 03:16:50;;;;;;;30.83;27.80;;;5.00;99.90;;;;;;5059160;28;20901;-71
2022/04/17 03:19:38;;;;;;;30.33;27.23;;;5.00;99.90;;;;;;5059609;28;20824;-70
2022/04/17 03:22:28;;;;;;;30.83;27.73;;;5.00;99.90;;;;;;5055725;28;20537;-71
2022/04/17 03:25:17;;;;;;;30.63;27.37;;;4.90;99.90;;;;;;5057690;28;20552;-70
2022/04/17 03:28:05;;;;;;;29.17;26.07;;;4.90;99.90;;;;;;5059010;28;20630;-71
2022/04/17 03:30:53;;;;;;;29.57;26.43;;;4.90;99.90;;;;;;5058584;28;20542;-71
2022/04/17 03:33:41;;;;;;;30.53;27.23;;;4.80;99.90;;;;;;5058479;28;20664;-71
2022/04/17 03:36:29;;;;;;;37.73;31.67;;;4.80;99.90;;;;;;5058307;28;20434;-71
2022/04/17 03:39:19;;;;;;;86.07;49.30;;;4.70;99.90;;;;;;5056244;28;21091;-70
2022/04/17 03:42:07;;;;;;;50.50;38.33;;;4.60;99.90;;;;;;5057923;28;20545;-70
2022/04/17 03:44:55;;;;;;;38.20;30.80;;;4.50;99.90;;;;;;5054719;28;20892;-71
2022/04/17 03:47:44;;;;;;;33.43;28.50;;;4.40;99.90;;;;;;5057560;28;20628;-71
2022/04/17 03:50:33;;;;;;;30.03;26.70;;;4.30;99.90;;;;;;5058054;28;20439;-71
2022/04/17 03:53:21;;;;;;;31.57;28.27;;;4.20;99.90;;;;;;5057732;28;20545;-70
2022/04/17 03:56:10;;;;;;;33.50;28.00;;;4.20;99.90;;;;;;5058027;28;20564;-70
2022/04/17 03:58:59;;;;;;;35.90;29.07;;;4.10;99.90;;;;;;5057185;28;20575;-70
2022/04/17 04:01:47;;;;;;;33.87;28.50;;;4.00;99.90;;;;;;5057219;28;20541;-70
2022/04/17 04:04:36;;;;;;;31.43;27.80;;;3.90;99.90;;;;;;5055207;28;20485;-71
2022/04/17 04:07:24;;;;;;;32.30;28.10;;;3.90;99.90;;;;;;5057497;28;20806;-70
2022/04/17 04:10:12;;;;;;;31.67;27.43;;;3.80;99.90;;;;;;5057572;28;20494;-70
2022/04/17 04:13:03;;;;;;;32.70;27.73;;;3.70;99.90;;;;;;5055737;28;20952;-71
2022/04/17 04:15:51;;;;;;;30.67;27.37;;;3.70;99.90;;;;;;5056089;28;20473;-70
2022/04/17 04:18:39;;;;;;;34.90;29.23;;;3.60;99.90;;;;;;5057854;28;20489;-71
2022/04/17 04:21:27;;;;;;;31.27;28.00;;;3.60;99.90;;;;;;5057587;28;20518;-70
2022/04/17 04:24:18;;;;;;;30.13;26.93;;;3.50;99.90;;;;;;5055107;28;21057;-70
2022/04/17 04:30:13;;;;;;;28.60;25.67;;;3.40;99.90;;;;;;5057506;28;20604;-70
2022/04/17 04:33:01;;;;;;;27.90;25.33;;;3.40;99.90;;;;;;5054769;28;20527;-70
2022/04/17 04:35:49;;;;;;;30.73;27.43;;;3.40;99.90;;;;;;5058008;28;20540;-70
2022/04/17 04:38:38;;;;;;;38.30;31.27;;;3.30;99.90;;;;;;5056057;28;20967;-70
2022/04/17 04:41:26;;;;;;;37.57;30.80;;;3.30;99.90;;;;;;5056064;28;20568;-70
2022/04/17 04:44:14;;;;;;;32.80;29.30;;;3.30;99.90;;;;;;5056149;28;20568;-70
2022/04/17 04:47:04;;;;;;;36.93;29.30;;;3.30;99.90;;;;;;5055478;28;20523;-70
2022/04/17 04:49:52;;;;;;;30.43;27.37;;;3.30;99.90;;;;;;5056881;28;20831;-70
2022/04/17 04:52:40;;;;;;;32.17;28.07;;;3.20;99.90;;;;;;5055792;28;20553;-70
2022/04/17 04:55:28;;;;;;;36.90;31.20;;;3.20;99.90;;;;;;5054989;28;20538;-70
2022/04/17 04:58:16;;;;;;;35.13;29.10;;;3.20;99.90;;;;;;5056406;28;20508;-70
2022/04/17 05:01:05;;;;;;;46.10;34.10;;;3.20;99.90;;;;;;5057883;28;20556;-70
2022/04/17 05:03:54;;;;;;;43.03;32.97;;;3.20;99.90;;;;;;5056682;28;20978;-70
2022/04/17 05:06:42;;;;;;;37.70;30.80;;;3.20;99.90;;;;;;5055385;28;20616;-70
2022/04/17 05:09:31;;;;;;;32.20;27.93;;;3.20;99.90;;;;;;5056020;28;20489;-70
2022/04/17 05:12:19;;;;;;;29.00;26.00;;;3.20;99.90;;;;;;5055304;28;20945;-70
2022/04/17 05:15:09;;;;;;;28.07;25.17;;;3.30;99.90;;;;;;5055841;28;20495;-70
2022/04/17 05:17:57;;;;;;;28.13;25.47;;;3.30;99.90;;;;;;5058379;28;20506;-70
2022/04/17 05:20:46;;;;;;;28.53;25.60;;;3.40;99.90;;;;;;5058645;28;20542;-70
2022/04/17 05:23:37;;;;;;;30.07;25.40;;;3.40;99.90;;;;;;5057056;28;20534;-70
2022/04/17 05:26:25;;;;;;;30.73;24.83;;;3.50;99.90;;;;;;5056335;28;21077;-70
2022/04/17 05:29:13;;;;;;;28.27;25.30;;;3.50;99.90;;;;;;5056678;28;20466;-70
2022/04/17 05:32:01;;;;;;;26.93;23.93;;;3.60;99.90;;;;;;5056342;28;21088;-70
2022/04/17 05:34:49;;;;;;;27.10;24.50;;;3.70;99.90;;;;;;5053876;28;20612;-70
2022/04/17 05:37:39;;;;;;;26.70;23.90;;;3.80;99.90;;;;;;5055200;28;20489;-70
2022/04/17 05:40:27;;;;;;;23.67;21.27;;;3.90;99.90;;;;;;5055445;28;20967;-69
2022/04/17 05:43:16;;;;;;;22.13;19.87;;;4.00;99.90;;;;;;5051804;28;20481;-69
2022/04/17 05:46:05;;;;;;;21.47;19.37;;;4.20;99.90;;;;;;5051592;28;20599;-70
2022/04/17 05:48:53;;;;;;;19.57;17.63;;;4.30;99.90;;;;;;5053507;28;20466;-70
2022/04/17 05:51:41;;;;;;;19.07;16.97;;;4.40;99.90;;;;;;5054039;28;20583;-70
2022/04/17 05:54:30;;;;;;;18.30;16.57;;;4.50;99.90;;;;;;5053795;28;20535;-70
2022/04/17 05:57:19;;;;;;;17.80;16.00;;;4.60;99.90;;;;;;5052864;28;20473;-70
2022/04/17 06:00:09;;;;;;;18.07;16.37;;;4.70;99.90;;;;;;5054492;28;20510;-70
2022/04/17 06:02:58;;;;;;;18.43;16.73;;;4.70;99.90;;;;;;5054123;28;20549;-70
2022/04/17 06:05:47;;;;;;;17.47;15.83;;;4.80;99.90;;;;;;5052980;28;20472;-70
2022/04/17 06:08:35;;;;;;;18.53;16.70;;;4.90;99.90;;;;;;5053465;28;20600;-70
2022/04/17 06:11:24;;;;;;;17.73;16.03;;;5.00;99.90;;;;;;5054913;28;20478;-69
2022/04/17 06:14:13;;;;;;;17.23;15.63;;;5.00;99.90;;;;;;5053554;28;20555;-70
2022/04/17 06:17:01;;;;;;;16.40;14.90;;;5.10;99.90;;;;;;5051143;28;20476;-70
2022/04/17 06:19:49;;;;;;;16.67;14.97;;;5.20;99.90;;;;;;5052714;28;20615;-70
2022/04/17 06:22:38;;;;;;;16.47;14.87;;;5.30;99.90;;;;;;5053046;28;20653;-70
2022/04/17 06:25:26;;;;;;;15.53;14.00;;;5.30;99.90;;;;;;5053692;28;20972;-70
2022/04/17 06:28:16;;;;;;;15.47;13.97;;;5.40;99.90;;;;;;5053778;28;20548;-70
2022/04/17 06:31:07;;;;;;;13.77;12.43;;;5.50;99.90;;;;;;5053713;28;20450;-70
2022/04/17 06:33:55;;;;;;;13.67;12.47;;;5.60;99.90;;;;;;5052615;28;20985;-70
2022/04/17 06:36:46;;;;;;;15.97;12.50;;;5.70;99.90;;;;;;5054369;28;20463;-70
2022/04/17 06:39:34;;;;;;;11.83;10.80;;;5.70;99.90;;;;;;5054187;28;20473;-70
2022/04/17 06:42:22;;;;;;;12.23;10.87;;;5.90;99.90;;;;;;5053257;28;20596;-70
2022/04/17 06:45:12;;;;;;;12.27;11.10;;;6.00;99.90;;;;;;5052450;28;20599;-70
2022/04/17 06:48:12;;;;;;;11.17;10.00;;;6.10;99.90;;;;;;5053424;28;20524;-70
2022/04/17 06:51:00;;;;;;;11.50;10.40;;;6.20;99.90;;;;;;5055506;28;20541;-69
2022/04/17 06:53:48;;;;;;;11.17;10.17;;;6.30;99.90;;;;;;5041327;28;20542;-70
2022/04/17 06:56:36;;;;;;;12.07;9.87;;;6.40;99.90;;;;;;5070779;28;20561;-70
2022/04/17 06:59:24;;;;;;;10.00;9.00;;;6.50;99.90;;;;;;5057080;28;20497;-70
2022/04/17 07:02:14;;;;;;;9.90;9.00;;;6.60;99.90;;;;;;5054486;28;20442;-69
2022/04/17 07:05:02;;;;;;;9.87;8.47;;;6.70;99.90;;;;;;5056455;28;20514;-70
2022/04/17 07:07:58;;;;;;;8.97;8.10;;;6.80;99.90;;;;;;5057575;28;20453;-70
2022/04/17 07:10:47;;;;;;;8.50;7.70;;;6.90;99.90;;;;;;5056113;28;20550;-70
2022/04/17 07:13:35;;;;;;;9.27;8.37;;;7.00;99.90;;;;;;5055893;28;20616;-70
2022/04/17 07:16:23;;;;;;;8.20;7.47;;;7.10;99.90;;;;;;5057832;28;20460;-70
2022/04/17 07:19:14;;;;;;;8.30;7.50;;;7.20;99.90;;;;;;5054414;28;20473;-70
2022/04/17 07:22:02;;;;;;;7.10;6.40;;;7.30;99.90;;;;;;5055835;28;20477;-70
2022/04/17 07:24:53;;;;;;;10.10;7.60;;;7.40;99.90;;;;;;5054918;28;20471;-70
2022/04/17 07:27:43;;;;;;;8.37;7.47;;;7.40;99.90;;;;;;5054235;28;20498;-70
2022/04/17 07:30:33;;;;;;;8.20;7.40;;;7.50;99.90;;;;;;5057784;28;20503;-70
2022/04/17 07:33:21;;;;;;;9.43;8.50;;;7.60;99.90;;;;;;5055933;28;20471;-70
2022/04/17 07:36:11;;;;;;;9.57;8.60;;;7.60;99.90;;;;;;5055281;28;20546;-70
2022/04/17 07:38:59;;;;;;;9.10;7.80;;;7.70;99.90;;;;;;5055392;28;20515;-70
2022/04/17 07:41:48;;;;;;;10.70;8.37;;;7.80;99.90;;;;;;5055629;28;20479;-70
2022/04/17 07:44:39;;;;;;;8.23;7.43;;;7.80;99.90;;;;;;5052843;28;20631;-69
2022/04/17 07:47:28;;;;;;;8.73;7.73;;;7.90;99.90;;;;;;5054030;28;20556;-70
2022/04/17 07:50:17;;;;;;;8.63;7.70;;;8.00;99.90;;;;;;5056078;28;21506;-70
2022/04/17 07:53:07;;;;;;;8.53;7.13;;;8.10;99.90;;;;;;5055983;28;20916;-70
2022/04/17 07:55:56;;;;;;;8.23;7.43;;;8.10;99.90;;;;;;5054892;28;20547;-69
2022/04/17 07:58:44;;;;;;;8.80;7.90;;;8.20;99.90;;;;;;5052504;28;20657;-69
2022/04/17 08:01:39;;;;;;;8.00;7.17;;;8.30;99.90;;;;;;5048789;28;20506;-70
2022/04/17 08:04:27;;;;;;;7.63;7.00;;;8.40;99.90;;;;;;5055948;28;20600;-69
2022/04/17 08:07:15;;;;;;;8.30;7.20;;;8.40;99.90;;;;;;5057056;28;20559;-69
2022/04/17 08:10:05;;;;;;;8.10;7.30;;;8.50;99.90;;;;;;5055243;28;20672;-69
2022/04/17 08:12:54;;;;;;;7.60;6.80;;;8.60;99.90;;;;;;5055537;28;20616;-70
2022/04/17 08:15:42;;;;;;;6.70;6.10;;;8.70;99.90;;;;;;5056092;28;20460;-70
2022/04/17 08:18:30;;;;;;;6.30;5.70;;;8.70;99.90;;;;;;5055917;28;20481;-70
2022/04/17 08:21:19;;;;;;;5.87;5.27;;;8.80;99.90;;;;;;5055199;28;20573;-69
2022/04/17 08:24:07;;;;;;;6.43;5.77;;;8.90;99.90;;;;;;5056206;28;20552;-70
2022/04/17 08:26:57;;;;;;;6.70;6.03;;;9.00;99.90;;;;;;5055690;28;20520;-70
2022/04/17 08:29:45;;;;;;;7.83;5.07;;;9.00;99.90;;;;;;5037672;28;20720;-70
2022/04/17 08:32:33;;;;;;;5.07;4.50;;;9.00;99.90;;;;;;5054947;28;20553;-70
2022/04/17 08:35:22;;;;;;;5.10;4.60;;;9.10;99.90;;;;;;5054384;28;20860;-70
2022/04/17 08:38:10;;;;;;;5.77;5.07;;;9.10;99.90;;;;;;5056776;28;20454;-69
2022/04/17 08:40:59;;;;;;;4.60;4.20;;;9.20;99.90;;;;;;5053690;28;20615;-69
2022/04/17 08:43:49;;;;;;;5.20;4.10;;;9.30;99.90;;;;;;5055855;28;21009;-70
2022/04/17 08:46:37;;;;;;;4.60;4.20;;;9.40;99.90;;;;;;5055638;28;20543;-69
2022/04/17 08:49:25;;;;;;;5.10;4.60;;;9.40;99.90;;;;;;5053949;28;20529;-70
2022/04/17 08:52:16;;;;;;;4.83;4.37;;;9.50;99.90;;;;;;5054143;28;20552;-70
2022/04/17 08:55:04;;;;;;;4.77;4.37;;;9.60;99.90;;;;;;5053697;28;20446;-70
2022/04/17 08:57:53;;;;;;;5.20;4.70;;;9.70;99.90;;;;;;5057117;28;20970;-70
2022/04/17 09:00:42;;;;;;;4.70;4.23;;;9.80;99.90;;;;;;5056070;28;20629;-70
2022/04/17 09:03:31;;;;;;;4.20;3.80;;;9.90;99.90;;;;;;5051677;28;20496;-70
2022/04/17 09:06:21;;;;;;;4.90;4.40;;;10.00;99.90;;;;;;5054443;28;20623;-70
2022/04/17 09:09:11;;;;;;;4.43;4.03;;;10.00;99.90;;;;;;5054974;28;20570;-70
2022/04/17 09:12:00;;;;;;;5.07;4.57;;;10.10;99.90;;;;;;5055389;28;20568;-70
2022/04/17 09:14:49;;;;;;;4.93;4.53;;;10.10;99.90;;;;;;5052435;28;20593;-70
2022/04/17 09:17:38;;;;;;;4.80;4.40;;;10.20;99.90;;;;;;5057863;28;20521;-71
2022/04/17 09:20:27;;;;;;;6.50;4.83;;;10.30;99.90;;;;;;5056262;28;20481;-70
2022/04/17 09:23:31;;;;;;;4.13;3.73;;;10.40;99.90;;;;;;5052497;28;20947;-70
2022/04/17 09:26:24;;;;;;;5.23;4.73;;;10.40;99.90;;;;;;5053096;28;20561;-70
2022/04/17 09:29:18;;;;;;;5.50;5.00;;;10.50;99.90;;;;;;5053537;28;20465;-70
2022/04/17 09:32:08;;;;;;;5.53;4.67;;;10.50;99.90;;;;;;5053913;28;20475;-70
2022/04/17 09:34:58;;;;;;;5.27;4.40;;;10.60;99.90;;;;;;5053774;28;20934;-70
2022/04/17 09:37:47;;;;;;;4.30;3.90;;;10.60;99.90;;;;;;5054655;28;20513;-70
2022/04/17 09:40:37;;;;;;;7.00;4.80;;;10.70;99.90;;;;;;5051114;28;21131;-70
2022/04/17 09:43:32;;;;;;;5.10;4.60;;;10.70;99.90;;;;;;5053210;28;20466;-70
2022/04/17 09:46:20;;;;;;;4.07;3.73;;;10.80;99.90;;;;;;5053959;28;20830;-70
2022/04/17 09:49:09;;;;;;;5.30;4.20;;;10.90;99.90;;;;;;5052360;28;20467;-70
2022/04/17 09:52:08;;;;;;;4.60;4.20;;;11.00;99.90;;;;;;5053175;28;20569;-70
2022/04/17 09:54:56;;;;;;;4.20;3.87;;;11.10;99.90;;;;;;5052884;28;20540;-70
2022/04/17 09:57:44;;;;;;;4.13;3.80;;;11.00;99.90;;;;;;5051008;28;20583;-70
2022/04/17 10:00:42;;;;;;;4.10;3.80;;;11.10;99.90;;;;;;5052536;28;20459;-70
2022/04/17 10:03:31;;;;;;;4.00;3.70;;;11.20;99.90;;;;;;5051062;28;20613;-70
2022/04/17 10:06:19;;;;;;;5.03;4.37;;;11.20;99.90;;;;;;5051538;28;21003;-70
2022/04/17 10:09:11;;;;;;;4.60;4.20;;;11.40;99.90;;;;;;5053796;28;20477;-70
2022/04/17 10:12:00;;;;;;;4.23;3.70;;;11.50;99.90;;;;;;5055576;28;20922;-70
2022/04/17 10:14:50;;;;;;;4.80;4.33;;;11.60;99.90;;;;;;5050163;28;20482;-70
2022/04/17 10:17:40;;;;;;;4.47;4.07;;;11.60;99.90;;;;;;5054441;28;20507;-70
2022/04/17 10:20:28;;;;;;;4.83;4.00;;;11.70;99.90;;;;;;5054922;28;20585;-70
2022/04/17 10:23:17;;;;;;;3.80;3.50;;;11.90;99.90;;;;;;5055265;28;20549;-70
2022/04/17 10:26:07;;;;;;;3.60;2.73;;;12.00;99.90;;;;;;5053948;28;20500;-70
2022/04/17 10:28:57;;;;;;;3.70;3.30;;;12.10;99.90;;;;;;5058088;28;20557;-70
2022/04/17 10:31:58;;;;;;;3.10;2.90;;;12.10;99.90;;;;;;5054692;28;20546;-70
2022/04/17 10:35:10;;;;;;;3.50;2.87;;;12.20;99.90;;;;;;5058786;28;20941;-70
2022/04/17 10:38:23;;;;;;;3.33;2.97;;;12.20;99.90;;;;;;5058209;28;20543;-71
2022/04/17 10:41:13;;;;;;;3.17;2.80;;;12.30;99.90;;;;;;5056366;28;20466;-70
2022/04/17 10:44:05;;;;;;;4.73;2.93;;;12.40;99.90;;;;;;5056833;28;20513;-71
2022/04/17 10:46:53;;;;;;;2.90;2.60;;;12.70;99.90;;;;;;5057368;28;20441;-70
2022/04/17 10:49:53;;;;;;;2.43;2.23;;;12.80;99.90;;;;;;5057703;28;20496;-71
2022/04/17 10:52:43;;;;;;;2.13;2.03;;;12.90;99.90;;;;;;5057440;28;20478;-70
2022/04/17 10:55:34;;;;;;;2.70;2.40;;;13.10;99.40;;;;;;5057331;28;21251;-71
2022/04/17 10:58:34;;;;;;;2.30;2.10;;;13.10;97.60;;;;;;5057121;28;20661;-71
2022/04/17 11:01:51;;;;;;;3.10;2.60;;;13.10;97.80;;;;;;5057884;28;20498;-71
2022/04/17 11:04:41;;;;;;;2.80;2.60;;;13.20;98.80;;;;;;5054704;28;20530;-71
2022/04/17 11:07:31;;;;;;;2.70;2.50;;;13.30;99.90;;;;;;5055050;28;20615;-71
2022/04/17 11:10:23;;;;;;;2.57;2.37;;;13.50;99.30;;;;;;5056545;28;20610;-71
2022/04/17 11:13:11;;;;;;;2.40;2.20;;;13.70;98.60;;;;;;5055373;28;20552;-71
2022/04/17 11:16:06;;;;;;;2.63;2.23;;;13.70;95.70;;;;;;5057267;28;20449;-71
2022/04/17 11:18:56;;;;;;;4.00;2.33;;;13.80;95.80;;;;;;5056652;28;20504;-70
2022/04/17 11:21:46;;;;;;;2.27;2.13;;;13.90;97.20;;;;;;5058077;28;20621;-70
2022/04/17 11:25:03;;;;;;;2.40;2.20;;;14.10;96.30;;;;;;5055758;28;20512;-70
2022/04/17 11:27:53;;;;;;;2.20;2.00;;;14.20;93.10;;;;;;5057916;28;20489;-71
2022/04/17 11:31:02;;;;;;;2.50;2.20;;;14.30;96.50;;;;;;5056616;28;20457;-71
2022/04/17 11:33:59;;;;;;;2.33;2.10;;;14.30;93.60;;;;;;5055420;28;20472;-71
2022/04/17 11:36:48;;;;;;;2.13;1.80;;;14.40;95.30;;;;;;5056113;28;20478;-70
2022/04/17 11:39:38;;;;;;;2.33;2.13;;;14.60;96.70;;;;;;5057935;28;20567;-71
2022/04/17 11:42:29;;;;;;;2.50;2.20;;;14.80;93.00;;;;;;5058465;28;20461;-71
2022/04/17 11:45:19;;;;;;;1.90;1.80;;;15.00;91.60;;;;;;5058543;28;21084;-70
2022/04/17 11:48:10;;;;;;;2.17;1.97;;;15.10;94.30;;;;;;5058122;28;20825;-70
2022/04/17 11:50:59;;;;;;;1.87;1.60;;;15.20;93.30;;;;;;5058132;28;20635;-71
2022/04/17 11:53:47;;;;;;;1.83;1.70;;;15.40;95.60;;;;;;5054521;28;20997;-70
2022/04/17 11:56:51;;;;;;;2.30;1.90;;;15.50;93.80;;;;;;5059727;28;20548;-71
2022/04/17 11:59:46;;;;;;;2.70;1.97;;;15.60;92.00;;;;;;5058328;28;20938;-71
2022/04/17 12:02:36;;;;;;;1.37;1.27;;;15.80;88.40;;;;;;5056728;28;20619;-70
2022/04/17 12:05:26;;;;;;;1.40;1.30;;;15.80;85.80;;;;;;5057685;28;20868;-70
2022/04/17 12:08:14;;;;;;;2.60;1.80;;;15.80;86.00;;;;;;5057995;28;20589;-71
2022/04/17 12:11:05;;;;;;;2.10;1.80;;;15.90;81.20;;;;;;5056750;28;20518;-70
2022/04/17 12:13:54;;;;;;;1.87;1.50;;;16.00;78.60;;;;;;5056865;28;20488;-70
2022/04/17 12:16:51;;;;;;;1.73;1.30;;;16.10;81.50;;;;;;5057384;28;20454;-70
2022/04/17 12:19:39;;;;;;;1.97;1.83;;;16.30;82.20;;;;;;5057031;28;20507;-70
2022/04/17 12:22:28;;;;;;;1.70;1.60;;;16.40;81.90;;;;;;5058107;28;20474;-71
2022/04/17 12:25:19;;;;;;;1.90;1.53;;;16.50;80.50;;;;;;5058042;28;20439;-71
2022/04/17 12:28:08;;;;;;;2.00;1.80;;;16.50;74.20;;;;;;5056852;28;20546;-70
2022/04/17 12:30:56;;;;;;;1.47;1.37;;;16.60;80.30;;;;;;5057695;28;20537;-71
2022/04/17 12:33:44;;;;;;;1.80;1.50;;;16.70;81.80;;;;;;5056382;28;20989;-70
2022/04/17 12:36:32;;;;;;;2.10;1.60;;;16.90;82.90;;;;;;5055384;28;20478;-71
2022/04/17 12:39:32;;;;;;;1.77;1.50;;;17.10;78.70;;;;;;5057871;28;20477;-70
2022/04/17 12:42:20;;;;;;;2.00;1.90;;;17.20;75.40;;;;;;5056916;28;20683;-71
2022/04/17 12:45:10;;;;;;;1.80;1.70;;;17.40;79.50;;;;;;5055278;28;20977;-71
2022/04/17 12:48:02;;;;;;;3.83;2.70;;;17.50;81.00;;;;;;5056865;28;20478;-70
2022/04/17 12:50:56;;;;;;;1.67;1.57;;;17.70;81.20;;;;;;5057919;28;20877;-71
2022/04/17 12:53:44;;;;;;;1.60;1.50;;;17.90;78.10;;;;;;5054746;28;20482;-71
2022/04/17 12:56:34;;;;;;;2.20;1.70;;;17.90;76.80;;;;;;5059536;28;20477;-70
2022/04/17 12:59:22;;;;;;;1.70;1.60;;;18.00;74.60;;;;;;5057856;28;20964;-71
2022/04/17 13:02:14;;;;;;;1.90;1.67;;;18.10;71.00;;;;;;5057269;28;20553;-70
2022/04/17 13:05:03;;;;;;;1.83;1.60;;;18.30;77.90;;;;;;5054476;28;20447;-70
2022/04/17 13:07:51;;;;;;;1.70;1.40;;;18.50;72.60;;;;;;5056426;28;20538;-71
2022/04/17 13:10:39;;;;;;;1.50;1.40;;;18.60;74.20;;;;;;5058135;28;20481;-71
2022/04/17 13:13:39;;;;;;;2.07;1.80;;;18.80;76.10;;;;;;5055584;28;20541;-71
2022/04/17 13:16:27;;;;;;;2.13;2.00;;;19.10;75.80;;;;;;5056401;28;21023;-71
2022/04/17 13:19:15;;;;;;;1.90;1.80;;;19.20;75.50;;;;;;5058292;28;20466;-71
2022/04/17 13:22:07;;;;;;;1.67;1.57;;;19.40;74.50;;;;;;5054093;28;20585;-70
2022/04/17 13:24:56;;;;;;;1.90;1.80;;;19.70;71.00;;;;;;5054354;28;20533;-70
2022/04/17 13:27:46;;;;;;;1.77;1.67;;;19.80;69.70;;;;;;5057823;28;20505;-70
2022/04/17 13:30:35;;;;;;;3.27;3.00;;;20.00;73.10;;;;;;5056057;28;20462;-71
2022/04/17 13:33:24;;;;;;;3.10;2.80;;;20.40;72.20;;;;;;5055744;28;21035;-71
2022/04/17 13:36:12;;;;;;;2.37;2.17;;;20.60;74.10;;;;;;5056218;28;20599;-71
2022/04/17 13:39:00;;;;;;;2.03;1.93;;;20.70;73.70;;;;;;5055940;28;20847;-71
2022/04/17 13:41:48;;;;;;;3.50;1.70;;;21.00;70.30;;;;;;5055225;28;20456;-70
2022/04/17 13:44:38;;;;;;;1.77;1.63;;;21.20;67.10;;;;;;5055289;28;20512;-71
2022/04/17 13:47:28;;;;;;;1.53;1.40;;;21.40;66.00;;;;;;5053603;28;20515;-71
2022/04/17 13:50:17;;;;;;;3.63;1.70;;;21.90;65.00;;;;;;5056610;28;20469;-71
2022/04/17 13:53:06;;;;;;;1.83;1.73;;;22.40;60.70;;;;;;5055141;28;20536;-71
2022/04/17 13:55:54;;;;;;;1.77;1.50;;;22.60;62.90;;;;;;5055373;28;20442;-71
2022/04/17 13:58:42;;;;;;;1.80;1.63;;;22.90;57.90;;;;;;5055977;28;20623;-71
2022/04/17 14:01:30;;;;;;;1.80;1.50;;;22.80;58.70;;;;;;5062047;28;20469;-71
2022/04/17 14:04:20;;;;;;;1.70;1.60;;;22.80;58.10;;;;;;5057855;28;20481;-71
2022/04/17 14:07:09;;;;;;;1.70;1.60;;;22.80;59.00;;;;;;5036729;28;20536;-71
2022/04/17 14:10:00;;;;;;;1.30;1.20;;;22.70;58.30;;;;;;5047564;28;20477;-71
2022/04/17 14:12:49;;;;;;;1.70;1.60;;;22.50;58.80;;;;;;5035410;28;20470;-75
2022/04/17 14:15:37;;;;;;;1.47;1.37;;;22.60;60.40;;;;;;5044395;28;20466;-75
2022/04/17 14:18:25;;;;;;;1.70;1.50;;;22.50;57.20;;;;;;5038904;28;20862;-75
2022/04/17 14:21:14;;;;;;;1.50;1.40;;;22.20;56.00;;;;;;5040373;28;20473;-76
2022/04/17 14:24:03;;;;;;;1.57;1.27;;;22.10;58.30;;;;;;5043030;28;20550;-71
2022/04/17 14:26:51;;;;;;;1.60;1.50;;;21.90;59.10;;;;;;5043938;28;20520;-71
2022/04/17 14:29:40;;;;;;;1.57;1.47;;;22.00;58.50;;;;;;5045960;28;21042;-71
2022/04/17 14:32:28;;;;;;;1.37;1.30;;;22.00;56.50;;;;;;5035223;28;20546;-71
2022/04/17 14:35:16;;;;;;;1.70;1.60;;;21.90;57.40;;;;;;5034565;28;20595;-71
2022/04/17 14:38:06;;;;;;;7.63;6.93;;;22.00;60.80;;;;;;5034323;28;20539;-69
2022/04/17 14:40:55;;;;;;;1.90;1.80;;;22.00;59.40;;;;;;5035804;28;21064;-69
2022/04/17 14:43:43;;;;;;;1.50;1.40;;;22.00;58.50;;;;;;5034876;28;20487;-71
2022/04/17 14:46:31;;;;;;;3.10;1.57;;;22.20;59.30;;;;;;5049061;28;20626;-71
2022/04/17 14:49:20;;;;;;;1.83;1.70;;;22.20;60.30;;;;;;5037795;28;21060;-72